createdAt,value
2022-10-28T00:00:26.018Z,101758.93
2022-10-28T00:03:39.265Z,101759.23
2022-10-28T00:06:31.356Z,101760.89
2022-10-28T00:09:21.383Z,101756.57
2022-10-28T00:12:11.734Z,101754.17
2022-10-28T00:15:01.633Z,101752.11
2022-10-28T00:17:51.738Z,101759.34
2022-10-28T00:20:41.888Z,101757.56
2022-10-28T00:23:31.792Z,101750.37
2022-10-28T00:26:23.531Z,101752.51
2022-10-28T00:29:14.928Z,101747.50
2022-10-28T00:32:05.388Z,101745.11
2022-10-28T00:34:55.232Z,101740.57
2022-10-28T00:37:45.486Z,101732.77
2022-10-28T00:40:36.500Z,101729.43
2022-10-28T00:43:37.460Z,101731.16
2022-10-28T00:46:31.856Z,101729.91
2022-10-28T00:49:23.583Z,101731.02
2022-10-28T00:52:16.647Z,101731.10
2022-10-28T00:55:08.524Z,101723.48
2022-10-28T00:57:58.551Z,101724.33
2022-10-28T01:00:48.449Z,101722.42
2022-10-28T01:03:38.372Z,101711.56
2022-10-28T01:06:28.424Z,101715.73
2022-10-28T01:09:18.336Z,101721.52
2022-10-28T01:12:14.639Z,101715.80
2022-10-28T01:15:10.569Z,101711.64
2022-10-28T01:18:07.421Z,101711.92
2022-10-28T01:21:33.316Z,101709.93
2022-10-28T01:24:40.514Z,101707.23
2022-10-28T01:28:24.037Z,101707.70
2022-10-28T01:31:30.182Z,101706.10
2022-10-28T01:34:24.934Z,101702.93
2022-10-28T01:37:17.368Z,101695.57
2022-10-28T01:40:12.009Z,101696.86
2022-10-28T01:43:08.501Z,101693.54
2022-10-28T01:46:00.847Z,101693.34
2022-10-28T01:48:54.015Z,101688.08
2022-10-28T01:51:46.200Z,101686.52
2022-10-28T01:54:36.163Z,101683.77
2022-10-28T01:57:26.200Z,101680.11
2022-10-28T02:00:17.732Z,101681.01
2022-10-28T02:03:08.561Z,101679.05
2022-10-28T02:05:59.263Z,101678.19
2022-10-28T02:09:04.245Z,101673.00
2022-10-28T02:12:15.748Z,101667.21
2022-10-28T02:15:23.015Z,101664.52
2022-10-28T02:18:25.164Z,101664.98
2022-10-28T02:21:19.917Z,101661.67
2022-10-28T02:24:16.816Z,101660.25
2022-10-28T02:27:15.632Z,101654.48
2022-10-28T02:30:09.113Z,101649.33
2022-10-28T02:33:00.996Z,101649.38
2022-10-28T02:35:52.576Z,101647.02
2022-10-28T02:38:45.688Z,101651.35
2022-10-28T02:41:40.378Z,101643.85
2022-10-28T02:44:32.507Z,101637.36
2022-10-28T02:47:24.038Z,101638.02
2022-10-28T02:50:17.410Z,101639.73
2022-10-28T02:53:13.190Z,101638.27
2022-10-28T02:56:03.637Z,101634.42
2022-10-28T02:58:53.535Z,101629.92
2022-10-28T03:01:43.485Z,101623.64
2022-10-28T03:04:33.504Z,101619.88
2022-10-28T03:07:23.474Z,101617.98
2022-10-28T03:10:13.596Z,101617.67
2022-10-28T03:13:03.448Z,101605.85
2022-10-28T03:15:53.381Z,101606.55
2022-10-28T03:18:43.299Z,101605.56
2022-10-28T03:21:34.881Z,101610.52
2022-10-28T03:24:24.820Z,101609.59
2022-10-28T03:27:14.813Z,101615.95
2022-10-28T03:30:06.699Z,101618.29
2022-10-28T03:32:56.892Z,101616.65
2022-10-28T03:35:46.901Z,101610.09
2022-10-28T03:38:36.768Z,101609.98
2022-10-28T03:41:26.628Z,101611.29
2022-10-28T03:44:16.481Z,101606.98
2022-10-28T03:47:06.855Z,101599.91
2022-10-28T03:49:56.828Z,101599.11
2022-10-28T03:52:46.919Z,101596.27
2022-10-28T03:55:36.783Z,101594.74
2022-10-28T03:58:26.919Z,101598.94
2022-10-28T04:01:16.948Z,101601.81
2022-10-28T04:04:07.665Z,101599.71
2022-10-28T04:06:57.675Z,101598.85
2022-10-28T04:09:49.329Z,101597.02
2022-10-28T04:12:39.281Z,101596.95
2022-10-28T04:15:29.297Z,101598.28
2022-10-28T04:18:19.168Z,101590.79
2022-10-28T04:21:09.036Z,101583.06
2022-10-28T04:23:59.138Z,101578.23
2022-10-28T04:26:49.035Z,101580.83
2022-10-28T04:29:38.955Z,101580.40
2022-10-28T04:32:29.080Z,101576.84
2022-10-28T04:35:19.747Z,101573.58
2022-10-28T04:38:09.657Z,101576.67
2022-10-28T04:40:59.561Z,101575.25
2022-10-28T04:43:49.432Z,101571.91
2022-10-28T04:46:39.328Z,101569.27
2022-10-28T04:49:29.492Z,101560.46
2022-10-28T04:52:19.374Z,101554.05
2022-10-28T04:55:10.883Z,101549.20
2022-10-28T04:58:01.512Z,101549.43
2022-10-28T05:00:54.873Z,101553.80
2022-10-28T05:03:44.795Z,101553.91
2022-10-28T05:06:34.746Z,101552.62
2022-10-28T05:09:24.824Z,101554.65
2022-10-28T05:12:14.752Z,101558.82
2022-10-28T05:15:06.702Z,101559.94
2022-10-28T05:17:56.809Z,101556.76
2022-10-28T05:20:52.253Z,101554.38
2022-10-28T05:23:42.156Z,101551.09
2022-10-28T05:26:32.283Z,101543.52
2022-10-28T05:29:22.151Z,101544.31
2022-10-28T05:32:12.126Z,101543.48
2022-10-28T05:35:02.259Z,101540.37
2022-10-28T05:37:52.308Z,101536.70
2022-10-28T05:40:42.561Z,101535.99
2022-10-28T05:43:32.553Z,101536.33
2022-10-28T05:46:22.526Z,101542.20
2022-10-28T05:49:12.573Z,101543.20
2022-10-28T05:52:05.147Z,101546.09
2022-10-28T05:54:58.232Z,101545.52
2022-10-28T05:57:50.435Z,101542.31
2022-10-28T06:00:43.791Z,101543.93
2022-10-28T06:03:34.960Z,101543.30
2022-10-28T06:06:25.364Z,101541.06
2022-10-28T06:09:15.425Z,101541.84
2022-10-28T06:12:06.305Z,101534.87
2022-10-28T06:14:56.661Z,101527.53
2022-10-28T06:17:48.630Z,101534.23
2022-10-28T06:20:38.674Z,101534.77
2022-10-28T06:23:28.830Z,101534.80
2022-10-28T06:26:18.955Z,101534.30
2022-10-28T06:29:10.298Z,101532.44
2022-10-28T06:32:00.583Z,101534.73
2022-10-28T06:34:50.859Z,101531.90
2022-10-28T06:37:40.974Z,101525.10
2022-10-28T06:40:31.096Z,101522.97
2022-10-28T06:43:21.106Z,101523.22
2022-10-28T06:46:11.478Z,101532.02
2022-10-28T06:49:04.222Z,101531.17
2022-10-28T06:51:54.244Z,101530.24
2022-10-28T06:54:44.451Z,101539.50
2022-10-28T06:57:34.900Z,101541.42
2022-10-28T07:00:26.524Z,101534.20
2022-10-28T07:03:18.562Z,101534.14
2022-10-28T07:06:09.177Z,101529.08
2022-10-28T07:08:59.371Z,101531.34
2022-10-28T07:11:54.891Z,101533.27
2022-10-28T07:14:44.700Z,101530.81
2022-10-28T07:17:34.703Z,101533.98
2022-10-28T07:20:27.451Z,101528.52
2022-10-28T07:23:17.648Z,101528.52
2022-10-28T07:26:07.906Z,101534.38
2022-10-28T07:28:58.442Z,101530.27
2022-10-28T07:31:48.628Z,101530.38
2022-10-28T07:34:38.808Z,101530.74
2022-10-28T07:37:29.815Z,101531.94
2022-10-28T07:40:20.898Z,101530.14
2022-10-28T07:43:11.111Z,101532.71
2022-10-28T07:46:02.469Z,101536.61
2022-10-28T07:48:54.051Z,101536.51
2022-10-28T07:51:44.047Z,101538.13
2022-10-28T07:54:34.113Z,101545.73
2022-10-28T07:57:24.497Z,101545.05
2022-10-28T08:00:15.753Z,101546.88
2022-10-28T08:03:07.438Z,101552.05
2022-10-28T08:06:03.719Z,101549.13
2022-10-28T08:08:58.472Z,101541.83
2022-10-28T08:11:48.793Z,101535.23
2022-10-28T08:14:39.326Z,101533.84
2022-10-28T08:17:29.627Z,101531.43
2022-10-28T08:20:20.232Z,101527.68
2022-10-28T08:23:10.709Z,101530.50
2022-10-28T08:26:01.112Z,101531.68
2022-10-28T08:28:51.273Z,101526.01
2022-10-28T08:31:41.650Z,101530.09
2022-10-28T08:34:32.450Z,101528.52
2022-10-28T08:37:22.663Z,101526.14
2022-10-28T08:40:14.587Z,101524.91
2022-10-28T08:43:08.532Z,101522.25
2022-10-28T08:46:01.790Z,101524.20
2022-10-28T08:48:51.905Z,101524.56
2022-10-28T08:51:46.033Z,101516.34
2022-10-28T08:54:40.226Z,101509.84
2022-10-28T08:57:37.756Z,101511.80
2022-10-28T09:00:29.898Z,101510.36
2022-10-28T09:03:21.879Z,101506.10
2022-10-28T09:06:12.279Z,101509.80
2022-10-28T09:09:03.511Z,101506.10
2022-10-28T09:12:02.186Z,101509.61
2022-10-28T09:15:18.710Z,101506.80
2022-10-28T09:18:17.032Z,101504.27
2022-10-28T09:21:12.096Z,101496.61
2022-10-28T09:24:05.576Z,101494.65
2022-10-28T09:26:59.497Z,101499.27
2022-10-28T09:29:53.972Z,101496.52
2022-10-28T09:32:47.818Z,101494.21
2022-10-28T09:35:41.819Z,101495.17
2022-10-28T09:38:33.145Z,101490.41
2022-10-28T09:41:24.314Z,101492.70
2022-10-28T09:44:18.332Z,101494.67
2022-10-28T09:47:20.279Z,101502.48
2022-10-28T09:50:17.566Z,101503.42
2022-10-28T09:53:12.774Z,101505.43
2022-10-28T09:56:03.216Z,101503.24
2022-10-28T09:58:53.757Z,101497.22
2022-10-28T10:01:47.098Z,101495.22
2022-10-28T10:04:37.279Z,101492.95
2022-10-28T10:07:34.837Z,101495.27
2022-10-28T10:10:27.761Z,101497.75
2022-10-28T10:13:20.721Z,101490.70
2022-10-28T10:16:15.959Z,101493.39
2022-10-28T10:19:09.091Z,101493.52
2022-10-28T10:21:59.269Z,101488.15
2022-10-28T10:24:50.442Z,101486.58
2022-10-28T10:27:40.309Z,101489.89
2022-10-28T10:30:35.599Z,101487.59
2022-10-28T10:33:28.142Z,101479.66
2022-10-28T10:36:20.500Z,101470.88
2022-10-28T10:39:25.932Z,101466.86
2022-10-28T10:42:19.831Z,101458.59
2022-10-28T10:45:22.207Z,101455.52
2022-10-28T10:48:18.167Z,101449.02
2022-10-28T10:51:11.082Z,101446.23
2022-10-28T10:54:01.064Z,101440.50
2022-10-28T10:56:52.136Z,101439.84
2022-10-28T10:59:45.158Z,101438.73
2022-10-28T11:02:37.456Z,101432.63
2022-10-28T11:05:35.627Z,101428.12
2022-10-28T11:08:33.010Z,101417.38
2022-10-28T11:11:24.056Z,101417.02
2022-10-28T11:14:24.246Z,101414.84
2022-10-28T11:17:24.916Z,101409.63
2022-10-28T11:20:24.911Z,101399.83
2022-10-28T11:23:36.045Z,101389.61
2022-10-28T11:26:25.922Z,101382.04
2022-10-28T11:29:16.275Z,101380.56
2022-10-28T11:32:44.013Z,101381.89
2022-10-28T11:35:54.953Z,101383.83
2022-10-28T11:39:12.641Z,101384.15
2022-10-28T11:42:13.003Z,101379.41
2022-10-28T11:45:06.353Z,101378.75
2022-10-28T11:48:10.695Z,101378.38
2022-10-28T11:51:08.736Z,101374.00
2022-10-28T11:54:40.439Z,101376.97
2022-10-28T11:57:41.828Z,101382.77
2022-10-28T12:00:43.327Z,101381.75
2022-10-28T12:04:03.166Z,101389.50
2022-10-28T12:07:26.885Z,101391.24
2022-10-28T12:10:37.975Z,101395.98
2022-10-28T12:13:33.663Z,101405.75
2022-10-28T12:16:28.758Z,101409.77
2022-10-28T12:19:19.591Z,101410.59
2022-10-28T12:22:13.616Z,101427.15
2022-10-28T12:25:12.379Z,101443.35
2022-10-28T12:28:04.529Z,101442.08
2022-10-28T12:30:54.555Z,101443.12
2022-10-28T12:33:46.670Z,101447.91
2022-10-28T12:36:40.765Z,101449.61
2022-10-28T12:39:34.364Z,101460.91
2022-10-28T12:42:27.656Z,101462.70
2022-10-28T12:45:18.534Z,101472.34
2022-10-28T12:48:16.595Z,101472.45
2022-10-28T12:51:12.451Z,101474.35
2022-10-28T12:54:09.906Z,101467.02
2022-10-28T12:57:03.631Z,101459.38
2022-10-28T12:59:54.944Z,101452.63
2022-10-28T13:02:50.785Z,101447.49
2022-10-28T13:05:42.603Z,101441.10
2022-10-28T13:09:03.980Z,101438.77
2022-10-28T13:12:26.056Z,101428.80
2022-10-28T13:15:41.387Z,101415.30
2022-10-28T13:18:49.113Z,101402.88
2022-10-28T13:21:57.702Z,101401.27
2022-10-28T13:24:54.155Z,101394.72
2022-10-28T13:27:44.277Z,101390.05
2022-10-28T13:30:34.758Z,101388.77
2022-10-28T13:33:28.922Z,101379.45
2022-10-28T13:36:24.738Z,101373.52
2022-10-28T13:39:27.115Z,101370.39
2022-10-28T13:42:49.257Z,101375.11
2022-10-28T13:46:01.084Z,101371.42
2022-10-28T13:48:51.326Z,101362.40
2022-10-28T13:51:47.426Z,101356.55
2022-10-28T13:54:53.764Z,101356.80
2022-10-28T13:57:45.861Z,101354.41
2022-10-28T14:00:37.193Z,101349.58
2022-10-28T14:03:28.185Z,101351.55
2022-10-28T14:06:30.746Z,101348.25
2022-10-28T14:09:27.198Z,101335.57
2022-10-28T14:12:27.728Z,101328.73
2022-10-28T14:15:26.799Z,101324.92
2022-10-28T14:21:43.970Z,101328.21
2022-10-28T14:24:35.471Z,101323.15
2022-10-28T14:27:30.956Z,101318.39
2022-10-28T14:30:24.893Z,101314.00
2022-10-28T14:33:22.200Z,101310.86
2022-10-28T14:36:27.225Z,101296.59
2022-10-28T14:39:42.369Z,101286.49
2022-10-28T14:42:47.275Z,101293.73
2022-10-28T14:45:44.687Z,101284.77
2022-10-28T14:48:48.611Z,101267.76
2022-10-28T14:51:41.846Z,101263.13
2022-10-28T14:54:40.550Z,101266.89
2022-10-28T14:57:34.092Z,101271.62
2022-10-28T15:00:28.016Z,101275.89
2022-10-28T15:03:18.012Z,101284.42
2022-10-28T15:06:32.413Z,101287.02
2022-10-28T15:09:24.684Z,101277.23
2022-10-28T15:12:16.726Z,101282.19
2022-10-28T15:15:21.048Z,101287.70
2022-10-28T15:18:23.589Z,101287.38
2022-10-28T15:21:15.447Z,101284.62
2022-10-28T15:24:11.995Z,101283.35
2022-10-28T15:27:02.180Z,101290.65
2022-10-28T15:29:52.241Z,101293.44
2022-10-28T15:32:42.534Z,101293.40
2022-10-28T15:35:42.153Z,101289.30
2022-10-28T15:38:41.417Z,101285.57
2022-10-28T15:41:51.739Z,101277.93
2022-10-28T15:44:42.080Z,101277.98
2022-10-28T15:47:33.769Z,101281.42
2022-10-28T15:50:31.900Z,101283.75
2022-10-28T15:53:32.178Z,101283.02
2022-10-28T15:56:23.709Z,101288.75
2022-10-28T15:59:19.474Z,101291.63
2022-10-28T16:02:45.429Z,101297.61
2022-10-28T16:05:49.660Z,101308.52
2022-10-28T16:08:39.825Z,101312.11
2022-10-28T16:11:30.179Z,101315.88
2022-10-28T16:14:35.696Z,101320.70
2022-10-28T16:17:27.002Z,101322.52
2022-10-28T16:20:20.793Z,101337.61
2022-10-28T16:23:16.824Z,101334.65
2022-10-28T16:26:09.063Z,101325.14
2022-10-28T16:28:59.553Z,101309.63
2022-10-28T16:31:50.711Z,101299.70
2022-10-28T16:34:41.032Z,101292.80
2022-10-28T16:37:32.250Z,101293.91
2022-10-28T16:40:49.685Z,101299.23
2022-10-28T16:43:32.340Z,101293.89
2022-10-28T16:46:22.433Z,101294.69
2022-10-28T16:49:12.401Z,101288.83
2022-10-28T16:52:02.607Z,101283.66
2022-10-28T16:54:52.739Z,101270.75
2022-10-28T16:57:42.809Z,101266.19
2022-10-28T17:00:33.506Z,101266.70
2022-10-28T17:03:23.618Z,101269.81
2022-10-28T17:06:13.790Z,101263.12
2022-10-28T17:09:04.199Z,101257.60
2022-10-28T17:11:54.422Z,101256.45
2022-10-28T17:14:44.567Z,101259.34
2022-10-28T17:17:34.573Z,101251.98
2022-10-28T17:20:24.799Z,101241.31
2022-10-28T17:23:15.218Z,101230.48
2022-10-28T17:26:05.813Z,101234.86
2022-10-28T17:28:59.186Z,101236.01
2022-10-28T17:31:50.161Z,101236.30
2022-10-28T17:34:40.461Z,101236.08
2022-10-28T17:37:30.483Z,101240.06
2022-10-28T17:40:20.529Z,101234.83
2022-10-28T17:43:10.642Z,101235.50
2022-10-28T17:46:05.636Z,101234.88
2022-10-28T17:48:55.841Z,101236.39
2022-10-28T17:51:45.823Z,101239.50
2022-10-28T17:54:35.842Z,101247.23
2022-10-28T17:57:26.603Z,101245.09
2022-10-28T18:00:18.341Z,101243.69
2022-10-28T18:03:10.119Z,101248.31
2022-10-28T18:06:03.500Z,101239.08
2022-10-28T18:08:53.808Z,101234.30
2022-10-28T18:11:44.002Z,101232.77
2022-10-28T18:14:34.232Z,101228.17
2022-10-28T18:17:24.764Z,101223.85
2022-10-28T18:20:15.062Z,101227.17
2022-10-28T18:23:05.232Z,101228.15
2022-10-28T18:26:02.246Z,101229.26
2022-10-28T18:28:52.304Z,101228.76
2022-10-28T18:31:43.663Z,101228.75
2022-10-28T18:34:33.928Z,101224.00
2022-10-28T18:37:24.164Z,101224.85
2022-10-28T18:40:15.252Z,101225.71
2022-10-28T18:43:05.502Z,101218.88
2022-10-28T18:45:59.712Z,101219.52
2022-10-28T18:48:50.170Z,101210.16
2022-10-28T18:51:40.586Z,101206.46
2022-10-28T18:54:32.837Z,101201.48
2022-10-28T18:57:23.364Z,101197.55
2022-10-28T19:00:19.781Z,101194.45
2022-10-28T19:03:13.470Z,101189.29
2022-10-28T19:06:05.506Z,101190.14
2022-10-28T19:08:57.632Z,101184.98
2022-10-28T19:11:48.439Z,101183.05
2022-10-28T19:14:38.800Z,101180.41
2022-10-28T19:17:29.004Z,101180.29
2022-10-28T19:20:23.422Z,101182.52
2022-10-28T19:23:13.799Z,101179.08
2022-10-28T19:26:04.398Z,101183.13
2022-10-28T19:28:54.791Z,101181.77
2022-10-28T19:31:44.919Z,101186.77
2022-10-28T19:34:34.965Z,101182.66
2022-10-28T19:37:26.653Z,101188.60
2022-10-28T19:40:17.191Z,101184.99
2022-10-28T19:43:07.655Z,101181.92
2022-10-28T19:46:09.672Z,101183.63
2022-10-28T19:49:02.633Z,101181.06
2022-10-28T19:51:52.929Z,101180.61
2022-10-28T19:54:43.513Z,101179.27
2022-10-28T19:57:34.983Z,101174.80
2022-10-28T20:00:25.716Z,101177.36
2022-10-28T20:03:19.298Z,101178.23
2022-10-28T20:06:10.973Z,101176.86
2022-10-28T20:09:01.505Z,101167.67
2022-10-28T20:11:52.684Z,101165.38
2022-10-28T20:14:46.111Z,101165.29
2022-10-28T20:17:36.101Z,101161.29
2022-10-28T20:20:26.110Z,101161.48
2022-10-28T20:23:16.089Z,101157.42
2022-10-28T20:26:06.877Z,101152.98
2022-10-28T20:28:57.305Z,101148.45
2022-10-28T20:31:47.238Z,101142.03
2022-10-28T20:34:40.802Z,101145.64
2022-10-28T20:37:30.788Z,101145.53
2022-10-28T20:40:21.169Z,101141.89
2022-10-28T20:43:11.089Z,101133.84
2022-10-28T20:46:03.576Z,101132.69
2022-10-28T20:48:53.615Z,101130.91
2022-10-28T20:51:43.668Z,101131.48
2022-10-28T20:54:34.002Z,101132.77
2022-10-28T20:57:25.133Z,101142.25
2022-10-28T21:00:19.217Z,101141.87
2022-10-28T21:03:10.337Z,101140.20
2022-10-28T21:06:04.621Z,101139.29
2022-10-28T21:08:54.674Z,101135.55
2022-10-28T21:11:45.473Z,101136.71
2022-10-28T21:14:35.545Z,101137.41
2022-10-28T21:17:25.519Z,101134.56
2022-10-28T21:20:15.917Z,101134.17
2022-10-28T21:23:06.570Z,101129.67
2022-10-28T21:25:57.444Z,101125.44
2022-10-28T21:28:51.283Z,101126.05
2022-10-28T21:31:41.268Z,101116.85
2022-10-28T21:34:31.313Z,101112.23
2022-10-28T21:37:21.525Z,101107.94
2022-10-28T21:40:13.569Z,101105.94
2022-10-28T21:43:04.588Z,101103.18
2022-10-28T21:45:54.511Z,101105.19
2022-10-28T21:48:44.466Z,101104.89
2022-10-28T21:51:34.347Z,101104.64
2022-10-28T21:54:24.692Z,101106.13
2022-10-28T21:57:14.655Z,101109.48
2022-10-28T22:00:07.064Z,101105.00
2022-10-28T22:03:03.632Z,101099.65
2022-10-28T22:05:53.539Z,101103.07
2022-10-28T22:08:43.530Z,101103.84
2022-10-28T22:11:33.416Z,101105.45
2022-10-28T22:14:23.493Z,101103.50
2022-10-28T22:17:13.761Z,101099.60
2022-10-28T22:20:06.961Z,101097.12
2022-10-28T22:22:57.115Z,101102.30
2022-10-28T22:25:47.305Z,101102.92
2022-10-28T22:28:37.396Z,101094.63
2022-10-28T22:31:30.744Z,101095.81
2022-10-28T22:34:20.671Z,101099.63
2022-10-28T22:37:10.586Z,101101.89
2022-10-28T22:40:00.511Z,101100.57
2022-10-28T22:42:50.776Z,101106.41
2022-10-28T22:45:40.912Z,101107.92
2022-10-28T22:48:31.211Z,101105.45
2022-10-28T22:51:21.305Z,101104.16
2022-10-28T22:54:11.660Z,101102.94
2022-10-28T22:57:01.870Z,101100.11
2022-10-28T22:59:51.733Z,101091.20
2022-10-28T23:02:41.845Z,101095.64
2022-10-28T23:05:31.836Z,101099.31
2022-10-28T23:08:21.747Z,101104.39
2022-10-28T23:11:11.745Z,101097.77
2022-10-28T23:14:02.092Z,101094.34
2022-10-28T23:16:52.129Z,101091.80
2022-10-28T23:19:42.169Z,101098.67
2022-10-28T23:22:32.197Z,101097.96
2022-10-28T23:25:22.202Z,101098.89
2022-10-28T23:28:12.087Z,101097.88
2022-10-28T23:31:02.842Z,101088.88
2022-10-28T23:33:55.550Z,101085.27
2022-10-28T23:36:45.455Z,101084.19
2022-10-28T23:39:35.351Z,101080.09
2022-10-28T23:42:25.287Z,101076.57
2022-10-28T23:45:15.997Z,101071.67
2022-10-28T23:48:07.885Z,101073.08
2022-10-28T23:50:57.829Z,101074.26
2022-10-28T23:53:47.723Z,101073.83
2022-10-28T23:56:37.605Z,101076.94
2022-10-28T23:59:27.521Z,101079.02
